Time;durP1;ratioP1;P1;durP2;ratioP2;P2;SDS_P1;SDS_P2;PMS_P1;PMS_P2;Temp;Humidity;BMP_temperature;BMP_pressure;BME280_temperature;BME280_humidity;BME280_pressure;Samples;Min_cycle;Max_cycle;Signal;HPM_P1;HPM_P2
2023/11/17 00:00:31;;;;;;;11.50;6.00;;;6.50;99.90;;;;;;5097517;28;20461;-83
2023/11/17 00:03:01;;;;;;;5.80;5.20;;;6.50;99.90;;;;;;5117045;28;20460;-83
2023/11/17 00:05:28;;;;;;;7.53;5.70;;;6.50;99.90;;;;;;5117807;28;20484;-83
2023/11/17 00:07:55;;;;;;;6.53;4.93;;;6.50;99.90;;;;;;5120681;28;20516;-80
2023/11/17 00:10:22;;;;;;;9.03;6.10;;;6.50;99.90;;;;;;5101118;28;20458;-82
2023/11/17 00:12:53;;;;;;;8.60;5.50;;;6.40;99.90;;;;;;5097279;28;20460;-80
2023/11/17 00:15:20;;;;;;;5.97;5.30;;;6.40;99.90;;;;;;5107716;28;20559;-82
2023/11/17 00:17:46;;;;;;;8.30;5.53;;;6.40;99.90;;;;;;5116830;28;20476;-82
2023/11/17 00:20:13;;;;;;;6.47;5.07;;;6.30;99.90;;;;;;5117127;28;20459;-81
2023/11/17 00:22:40;;;;;;;6.70;5.57;;;6.30;99.90;;;;;;5117593;28;20453;-81
2023/11/17 00:25:08;;;;;;;6.33;5.43;;;6.30;99.90;;;;;;5113927;28;20446;-81
2023/11/17 00:27:37;;;;;;;7.33;6.13;;;6.30;99.90;;;;;;5106717;28;20445;-80
2023/11/17 00:30:07;;;;;;;10.33;5.50;;;6.20;99.90;;;;;;5099864;28;20825;-79
2023/11/17 00:32:34;;;;;;;8.57;5.80;;;6.20;99.90;;;;;;5098185;28;20537;-83
2023/11/17 00:35:01;;;;;;;8.93;6.73;;;6.20;99.90;;;;;;5097602;28;20832;-81
2023/11/17 00:37:28;;;;;;;8.53;6.13;;;6.20;99.90;;;;;;5096719;28;20489;-82
2023/11/17 00:39:55;;;;;;;7.43;6.47;;;6.20;99.90;;;;;;5098225;28;20464;-81
2023/11/17 00:42:22;;;;;;;8.83;7.00;;;6.20;99.90;;;;;;5096528;28;20536;-82
2023/11/17 00:44:49;;;;;;;9.13;6.67;;;6.20;99.90;;;;;;5102194;28;20465;-82
2023/11/17 00:47:17;;;;;;;10.83;8.20;;;6.20;99.90;;;;;;5110932;28;20465;-80
2023/11/17 00:49:44;;;;;;;9.13;7.10;;;6.20;99.90;;;;;;5110959;28;20453;-82
2023/11/17 00:52:10;;;;;;;10.13;7.20;;;6.20;99.90;;;;;;5113460;28;20445;-83
2023/11/17 00:54:42;;;;;;;10.50;7.60;;;6.30;99.90;;;;;;5114560;28;20448;-82
2023/11/17 00:57:10;;;;;;;9.17;7.30;;;6.20;99.90;;;;;;5116636;27;21001;-83
2023/11/17 00:59:37;;;;;;;8.97;6.30;;;6.20;99.90;;;;;;5116286;28;20489;-80
2023/11/17 01:02:04;;;;;;;10.20;6.60;;;6.20;99.90;;;;;;5115348;28;20456;-82
2023/11/17 01:04:33;;;;;;;12.20;7.50;;;6.20;99.90;;;;;;5116903;28;20935;-83
2023/11/17 01:07:01;;;;;;;11.00;6.70;;;6.20;99.90;;;;;;5116913;28;20498;-81
2023/11/17 01:09:28;;;;;;;9.50;7.00;;;6.20;99.90;;;;;;5115515;28;20487;-80
2023/11/17 01:11:55;;;;;;;8.90;6.63;;;6.20;99.90;;;;;;5116650;28;20949;-81
2023/11/17 01:14:22;;;;;;;9.80;7.93;;;6.20;99.90;;;;;;5117075;28;20448;-80
2023/11/17 01:16:49;;;;;;;12.00;6.60;;;6.10;99.90;;;;;;5112172;28;20488;-81
2023/11/17 01:19:16;;;;;;;9.63;6.63;;;6.10;99.90;;;;;;5104591;28;20452;-82
2023/11/17 01:21:44;;;;;;;10.13;7.57;;;6.10;99.90;;;;;;5096875;28;20453;-80
2023/11/17 01:24:11;;;;;;;9.97;7.07;;;6.10;99.90;;;;;;5096822;28;20460;-82
2023/11/17 01:26:38;;;;;;;9.87;6.90;;;6.00;99.90;;;;;;5095992;28;20479;-82
2023/11/17 01:29:05;;;;;;;10.57;7.03;;;6.00;99.90;;;;;;5109748;28;20486;-81
2023/11/17 01:31:32;;;;;;;6.90;5.90;;;6.00;99.90;;;;;;5098619;28;20460;-80
2023/11/17 01:33:58;;;;;;;10.77;7.37;;;6.00;99.90;;;;;;5100708;28;20464;-83
2023/11/17 01:36:25;;;;;;;11.57;6.83;;;6.00;99.90;;;;;;5095382;28;20504;-81
2023/11/17 01:38:54;;;;;;;11.37;6.90;;;5.90;99.90;;;;;;5099991;28;20445;-79
2023/11/17 01:41:21;;;;;;;9.90;6.80;;;5.90;99.90;;;;;;5107668;28;20955;-82
2023/11/17 01:43:48;;;;;;;10.80;7.47;;;5.80;99.90;;;;;;5116006;28;20460;-81
2023/11/17 01:46:16;;;;;;;9.97;6.80;;;5.80;99.90;;;;;;5115177;28;20492;-81
2023/11/17 01:48:43;;;;;;;9.53;6.23;;;5.70;99.90;;;;;;5107119;28;21206;-81
2023/11/17 01:51:11;;;;;;;8.73;6.60;;;5.70;99.90;;;;;;5116223;28;20459;-80
2023/11/17 01:53:37;;;;;;;11.47;7.50;;;5.70;99.90;;;;;;5123428;28;20465;-78
2023/11/17 01:56:06;;;;;;;8.00;6.50;;;5.70;99.90;;;;;;5114209;28;20497;-79
2023/11/17 01:58:34;;;;;;;9.30;7.00;;;5.70;99.90;;;;;;5116775;28;21079;-80
2023/11/17 02:01:03;;;;;;;8.50;6.83;;;5.60;99.90;;;;;;5120664;28;20454;-79
2023/11/17 02:03:30;;;;;;;11.57;7.87;;;5.60;99.90;;;;;;5121324;28;20479;-79
2023/11/17 02:06:05;;;;;;;12.33;7.23;;;5.50;99.90;;;;;;5114011;28;20497;-81
2023/11/17 02:08:40;;;;;;;9.40;6.73;;;5.50;99.90;;;;;;5108566;28;20460;-81
2023/11/17 02:11:18;;;;;;;9.70;6.93;;;5.50;99.90;;;;;;5111400;28;20464;-83
2023/11/17 02:13:51;;;;;;;9.63;6.60;;;5.50;99.90;;;;;;5112138;28;20457;-83
2023/11/17 02:16:24;;;;;;;8.30;6.47;;;5.40;99.90;;;;;;5119213;28;20571;-79
2023/11/17 02:18:58;;;;;;;8.93;7.40;;;5.40;99.90;;;;;;5118777;28;20819;-82
2023/11/17 02:21:29;;;;;;;8.13;6.20;;;5.30;99.90;;;;;;5119107;28;20453;-84
2023/11/17 02:23:59;;;;;;;12.37;6.87;;;5.30;99.90;;;;;;5111764;28;20458;-83
2023/11/17 02:26:37;;;;;;;8.60;5.97;;;5.30;99.90;;;;;;5119316;28;20559;-82
2023/11/17 02:29:10;;;;;;;10.93;7.50;;;5.30;99.90;;;;;;5118476;28;20910;-83
2023/11/17 02:31:39;;;;;;;9.20;5.97;;;5.30;99.90;;;;;;5104324;28;20467;-84
2023/11/17 02:34:08;;;;;;;8.33;7.23;;;5.30;99.90;;;;;;5101499;28;20533;-83
2023/11/17 02:36:38;;;;;;;7.40;6.50;;;5.30;99.90;;;;;;5098486;28;20863;-83
2023/11/17 02:39:13;;;;;;;8.47;6.20;;;5.40;99.90;;;;;;5102762;28;20462;-83
2023/11/17 02:41:43;;;;;;;8.70;6.20;;;5.30;99.90;;;;;;5111142;28;20457;-83
2023/11/17 02:44:15;;;;;;;8.37;6.00;;;5.30;99.90;;;;;;5113350;28;20452;-84
2023/11/17 02:46:44;;;;;;;6.73;5.40;;;5.30;99.90;;;;;;5099159;28;20519;-82
2023/11/17 02:49:22;;;;;;;9.47;6.77;;;5.30;99.90;;;;;;5105097;28;20551;-81
2023/11/17 02:51:51;;;;;;;8.53;6.57;;;5.30;99.90;;;;;;5122787;28;20460;-80
2023/11/17 02:54:21;;;;;;;12.77;7.50;;;5.40;99.90;;;;;;5127793;28;20472;-80
2023/11/17 02:56:49;;;;;;;11.93;7.50;;;5.40;99.90;;;;;;5116241;28;20504;-80
2023/11/17 02:59:17;;;;;;;10.67;6.40;;;5.30;99.90;;;;;;5114039;28;20533;-79
2023/11/17 03:01:46;;;;;;;9.43;6.83;;;5.30;99.90;;;;;;5124992;28;20532;-80
2023/11/17 03:04:15;;;;;;;11.23;7.33;;;5.30;99.90;;;;;;5131125;28;20487;-81
2023/11/17 03:06:46;;;;;;;8.10;6.23;;;5.30;99.90;;;;;;5124990;28;20480;-80
2023/11/17 03:09:14;;;;;;;8.33;6.23;;;5.30;99.90;;;;;;5125323;28;20466;-80
2023/11/17 03:11:42;;;;;;;9.13;7.80;;;5.40;99.90;;;;;;5120301;28;20456;-80
2023/11/17 03:14:09;;;;;;;11.23;7.30;;;5.30;99.90;;;;;;5119584;28;20539;-81
2023/11/17 03:16:36;;;;;;;9.10;6.83;;;5.30;99.90;;;;;;5112227;28;20481;-83
2023/11/17 03:19:10;;;;;;;10.00;7.53;;;5.30;99.90;;;;;;5109782;28;20585;-85
2023/11/17 03:21:40;;;;;;;10.03;7.60;;;5.30;99.90;;;;;;5117943;28;20520;-83
2023/11/17 03:24:14;;;;;;;10.37;7.73;;;5.30;99.90;;;;;;5119188;28;20519;-84
2023/11/17 03:26:44;;;;;;;9.40;7.40;;;5.30;99.90;;;;;;5098589;28;21012;-85
2023/11/17 03:29:13;;;;;;;8.47;7.40;;;5.20;99.90;;;;;;5116603;28;20448;-84
2023/11/17 03:31:40;;;;;;;10.93;7.63;;;5.20;99.90;;;;;;5119204;28;20456;-85
2023/11/17 03:34:09;;;;;;;9.10;7.90;;;5.20;99.90;;;;;;5111718;28;20526;-84
2023/11/17 03:36:38;;;;;;;10.80;7.80;;;5.20;99.90;;;;;;5098206;28;20553;-85
2023/11/17 03:39:12;;;;;;;10.27;7.67;;;5.30;99.90;;;;;;5108810;28;21014;-85
2023/11/17 03:41:39;;;;;;;9.97;8.20;;;5.30;99.90;;;;;;5107861;28;20456;-84
2023/11/17 03:44:06;;;;;;;10.00;7.10;;;5.40;99.90;;;;;;5108807;28;20452;-85
2023/11/17 03:46:33;;;;;;;10.10;7.40;;;5.40;99.90;;;;;;5115803;28;20522;-83
2023/11/17 03:49:00;;;;;;;9.33;7.80;;;5.40;99.90;;;;;;5116335;27;20474;-84
2023/11/17 03:51:28;;;;;;;12.77;8.50;;;5.40;99.90;;;;;;5101933;28;20467;-84
2023/11/17 03:53:55;;;;;;;11.20;7.57;;;5.40;99.90;;;;;;5102458;28;20453;-85
2023/11/17 03:56:22;;;;;;;9.57;7.40;;;5.40;99.90;;;;;;5105396;28;20479;-84
2023/11/17 03:58:48;;;;;;;13.80;7.67;;;5.50;99.90;;;;;;5113327;28;20495;-85
2023/11/17 04:01:15;;;;;;;10.97;8.67;;;5.50;99.90;;;;;;5122037;28;20530;-85
2023/11/17 04:03:42;;;;;;;16.80;10.40;;;5.60;99.90;;;;;;5111617;27;20463;-84
2023/11/17 04:06:09;;;;;;;19.13;9.73;;;5.60;99.90;;;;;;5101966;28;20477;-85
2023/11/17 04:08:38;;;;;;;16.70;11.23;;;5.70;99.90;;;;;;5110249;28;20459;-84
2023/11/17 04:11:05;;;;;;;18.73;10.33;;;5.80;99.90;;;;;;5111674;28;20467;-85
2023/11/17 04:13:35;;;;;;;20.27;11.93;;;5.90;99.90;;;;;;5105837;28;20455;-85
2023/11/17 04:16:02;;;;;;;20.63;12.43;;;6.00;99.90;;;;;;5113277;28;20469;-82
2023/11/17 04:18:29;;;;;;;22.93;12.77;;;6.00;99.90;;;;;;5108219;28;20498;-85
2023/11/17 04:20:55;;;;;;;22.60;12.67;;;6.00;99.90;;;;;;5113939;28;20455;-86
2023/11/17 04:23:22;;;;;;;24.60;12.00;;;6.10;99.90;;;;;;5121066;28;20452;-84
2023/11/17 04:25:51;;;;;;;25.60;13.20;;;6.10;99.90;;;;;;5116068;28;20481;-84
2023/11/17 04:28:17;;;;;;;33.47;15.40;;;6.20;99.90;;;;;;5103505;28;20483;-85
2023/11/17 04:30:44;;;;;;;32.77;16.07;;;6.10;99.90;;;;;;5105998;28;20456;-86
2023/11/17 04:33:11;;;;;;;22.70;13.83;;;6.10;99.90;;;;;;5106983;28;20453;-85
2023/11/17 04:35:38;;;;;;;27.03;13.37;;;6.00;99.90;;;;;;5114683;28;20467;-84
2023/11/17 04:38:05;;;;;;;27.20;13.53;;;6.10;99.90;;;;;;5119948;28;20488;-85
2023/11/17 04:40:33;;;;;;;45.23;17.83;;;6.10;99.90;;;;;;5119529;28;20462;-85
2023/11/17 04:43:02;;;;;;;28.00;13.90;;;6.00;99.90;;;;;;5120033;27;20455;-84
2023/11/17 04:45:35;;;;;;;24.23;13.33;;;6.00;99.90;;;;;;5119465;28;20477;-84
2023/11/17 04:48:04;;;;;;;39.80;19.20;;;6.00;99.90;;;;;;5105709;28;20467;-83
2023/11/17 04:50:32;;;;;;;23.40;15.10;;;5.90;99.90;;;;;;5117503;28;20456;-82
2023/11/17 04:52:59;;;;;;;27.53;13.87;;;5.90;99.90;;;;;;5119690;28;20460;-84
2023/11/17 04:55:25;;;;;;;24.53;14.63;;;6.00;99.90;;;;;;5119451;27;20477;-81
2023/11/17 04:57:52;;;;;;;22.90;14.93;;;6.00;99.90;;;;;;5113102;28;20511;-83
2023/11/17 05:00:21;;;;;;;36.87;17.63;;;6.00;99.90;;;;;;5107733;28;20457;-80
2023/11/17 05:02:47;;;;;;;23.30;14.43;;;6.00;99.90;;;;;;5100120;28;20910;-82
2023/11/17 05:05:15;;;;;;;21.13;14.10;;;6.10;99.90;;;;;;5100533;28;20904;-83
2023/11/17 05:07:44;;;;;;;31.93;17.00;;;6.10;99.90;;;;;;5113342;28;20460;-83
2023/11/17 05:10:13;;;;;;;24.57;14.23;;;6.00;99.90;;;;;;5111163;27;20545;-83
2023/11/17 05:12:40;;;;;;;25.40;16.13;;;6.10;99.90;;;;;;5113366;28;20499;-83
2023/11/17 05:15:12;;;;;;;27.17;16.57;;;5.90;99.90;;;;;;5109412;27;20446;-84
2023/11/17 05:17:44;;;;;;;26.60;15.10;;;5.90;99.90;;;;;;5109666;28;20479;-78
2023/11/17 05:20:12;;;;;;;27.63;17.20;;;6.00;99.90;;;;;;5106021;28;20455;-83
2023/11/17 05:22:39;;;;;;;28.10;15.60;;;5.80;99.90;;;;;;5112595;28;20552;-84
2023/11/17 05:25:06;;;;;;;29.17;15.97;;;5.80;99.90;;;;;;5107447;28;20456;-84
2023/11/17 05:27:34;;;;;;;25.70;15.93;;;5.80;99.90;;;;;;5110089;28;20457;-83
2023/11/17 05:30:01;;;;;;;27.13;16.20;;;5.90;99.90;;;;;;5107655;28;20503;-84
2023/11/17 05:32:30;;;;;;;32.50;18.10;;;6.00;99.90;;;;;;5106760;27;20457;-84
2023/11/17 05:34:58;;;;;;;46.60;21.47;;;6.00;99.90;;;;;;5118041;28;20983;-83
2023/11/17 05:37:28;;;;;;;32.30;19.03;;;5.90;99.90;;;;;;5113435;28;20455;-83
2023/11/17 05:39:55;;;;;;;30.20;17.23;;;5.90;99.90;;;;;;5113060;28;21000;-83
2023/11/17 05:42:22;;;;;;;33.93;18.03;;;6.00;99.90;;;;;;5118042;28;20464;-84
2023/11/17 05:44:49;;;;;;;41.77;21.47;;;6.00;99.90;;;;;;5119017;28;20539;-85
2023/11/17 05:47:16;;;;;;;38.20;21.13;;;5.90;99.90;;;;;;5110914;28;20926;-83
2023/11/17 05:49:45;;;;;;;44.83;19.53;;;5.90;99.90;;;;;;5100042;28;20511;-83
2023/11/17 05:52:14;;;;;;;35.07;18.57;;;6.00;99.90;;;;;;5104005;28;20653;-84
2023/11/17 05:54:43;;;;;;;36.93;17.80;;;6.00;99.90;;;;;;5122708;28;20556;-83
2023/11/17 05:57:11;;;;;;;32.93;18.00;;;6.00;99.90;;;;;;5122811;28;20476;-85
2023/11/17 05:59:38;;;;;;;37.53;17.17;;;6.00;99.90;;;;;;5123968;28;20843;-83
2023/11/17 06:02:06;;;;;;;36.17;18.40;;;6.00;99.90;;;;;;5113315;28;20465;-85
2023/11/17 06:04:33;;;;;;;35.50;17.20;;;6.00;99.90;;;;;;5107432;28;20457;-86
2023/11/17 06:07:00;;;;;;;33.03;17.57;;;6.10;99.90;;;;;;5109946;28;20469;-84
2023/11/17 06:09:28;;;;;;;34.53;16.93;;;6.20;99.90;;;;;;5115098;28;20453;-84
2023/11/17 06:11:56;;;;;;;38.63;17.10;;;6.10;99.90;;;;;;5103539;28;20452;-84
2023/11/17 06:14:23;;;;;;;37.40;18.23;;;6.10;99.90;;;;;;5119336;28;20964;-83
2023/11/17 06:16:53;;;;;;;39.23;21.03;;;6.00;99.90;;;;;;5118743;28;20476;-83
2023/11/17 06:19:20;;;;;;;42.87;19.63;;;6.00;99.90;;;;;;5119093;28;20488;-81
2023/11/17 06:21:47;;;;;;;50.67;19.53;;;6.00;99.90;;;;;;5118839;28;20464;-83
2023/11/17 06:24:15;;;;;;;44.20;22.13;;;6.00;99.90;;;;;;5110733;28;20457;-84
2023/11/17 06:26:45;;;;;;;37.63;19.43;;;5.90;99.90;;;;;;5110681;28;20472;-82
2023/11/17 06:29:12;;;;;;;52.77;23.50;;;5.90;99.90;;;;;;5119686;28;20490;-84
2023/11/17 06:31:38;;;;;;;39.47;20.77;;;5.60;99.90;;;;;;5120772;28;20467;-84
2023/11/17 06:34:05;;;;;;;28.97;16.97;;;5.70;99.90;;;;;;5105222;28;20446;-82
2023/11/17 06:36:37;;;;;;;30.90;17.03;;;5.70;99.90;;;;;;5107973;28;20559;-84
2023/11/17 06:39:13;;;;;;;28.10;16.97;;;5.80;99.90;;;;;;5111973;28;20496;-84
2023/11/17 06:41:43;;;;;;;29.70;17.57;;;5.80;99.90;;;;;;5109091;28;20458;-84
2023/11/17 06:44:10;;;;;;;30.83;16.57;;;5.80;99.90;;;;;;5105382;28;20457;-85
2023/11/17 06:46:39;;;;;;;34.53;17.27;;;5.80;99.90;;;;;;5112816;28;20476;-84
2023/11/17 06:49:08;;;;;;;33.30;19.03;;;5.70;99.90;;;;;;5112732;28;20961;-85
2023/11/17 06:51:36;;;;;;;32.87;17.20;;;5.70;99.90;;;;;;5117444;28;20483;-82
2023/11/17 06:54:05;;;;;;;32.43;18.53;;;5.70;99.90;;;;;;5113876;28;20457;-84
2023/11/17 06:56:32;;;;;;;30.40;17.37;;;5.60;99.90;;;;;;5119156;28;20539;-84
2023/11/17 06:59:00;;;;;;;35.90;21.63;;;5.70;99.90;;;;;;5109504;28;20563;-84
2023/11/17 07:01:28;;;;;;;34.83;17.80;;;5.70;99.90;;;;;;5111622;28;20908;-83
2023/11/17 07:03:55;;;;;;;33.90;17.27;;;5.70;99.90;;;;;;5114765;28;20467;-84
2023/11/17 07:06:26;;;;;;;30.43;16.80;;;5.80;99.90;;;;;;5117573;28;20467;-82
2023/11/17 07:08:53;;;;;;;30.63;17.00;;;5.90;99.90;;;;;;5112060;28;20448;-84
2023/11/17 07:11:20;;;;;;;27.60;16.90;;;5.80;99.90;;;;;;5112178;28;20526;-83
2023/11/17 07:13:47;;;;;;;34.67;18.10;;;5.90;99.90;;;;;;5105637;28;20453;-84
2023/11/17 07:16:18;;;;;;;29.17;16.13;;;5.90;99.90;;;;;;5099893;28;20575;-82
2023/11/17 07:18:44;;;;;;;27.67;17.13;;;5.90;99.90;;;;;;5105578;28;20481;-83
2023/11/17 07:21:11;;;;;;;28.73;16.50;;;5.90;99.90;;;;;;5105406;28;20529;-82
2023/11/17 07:23:43;;;;;;;25.13;16.10;;;6.00;99.90;;;;;;5113841;28;20452;-83
2023/11/17 07:26:17;;;;;;;25.40;16.80;;;5.90;99.90;;;;;;5115285;28;20893;-81
2023/11/17 07:28:45;;;;;;;26.00;16.80;;;5.90;99.90;;;;;;5113544;28;20621;-81
2023/11/17 07:31:12;;;;;;;27.83;15.97;;;5.90;99.90;;;;;;5116152;28;20456;-83
2023/11/17 07:33:40;;;;;;;24.97;14.83;;;5.90;99.90;;;;;;5118410;28;20829;-80
2023/11/17 07:36:08;;;;;;;25.03;15.77;;;5.80;99.90;;;;;;5113529;28;20465;-81
2023/11/17 07:38:36;;;;;;;18.07;12.90;;;5.80;99.90;;;;;;5116967;28;20488;-80
2023/11/17 07:41:03;;;;;;;23.13;13.70;;;5.90;99.90;;;;;;5117298;28;20552;-81
2023/11/17 07:43:31;;;;;;;27.70;15.20;;;5.90;99.90;;;;;;5112304;28;20535;-83
2023/11/17 07:45:58;;;;;;;21.20;15.10;;;5.90;99.90;;;;;;5119658;28;20467;-83
2023/11/17 07:48:25;;;;;;;18.40;12.63;;;6.00;99.90;;;;;;5115100;28;20446;-80
2023/11/17 07:50:53;;;;;;;21.07;13.20;;;6.10;99.90;;;;;;5114634;28;20454;-83
2023/11/17 07:53:20;;;;;;;24.43;15.43;;;6.00;99.90;;;;;;5116987;28;20935;-82
2023/11/17 07:55:49;;;;;;;22.77;14.10;;;6.10;99.90;;;;;;5117572;28;20464;-83
2023/11/17 07:58:16;;;;;;;21.40;14.63;;;6.20;99.90;;;;;;5101722;28;20845;-84
2023/11/17 08:00:43;;;;;;;24.63;14.07;;;6.30;99.90;;;;;;5113533;28;20464;-83
2023/11/17 08:03:10;;;;;;;27.87;15.37;;;6.40;99.90;;;;;;5113659;28;20445;-84
2023/11/17 08:05:37;;;;;;;19.23;13.70;;;6.40;99.90;;;;;;5121455;28;20479;-84
2023/11/17 08:08:06;;;;;;;29.53;22.23;;;6.60;99.90;;;;;;5110607;28;20530;-83
2023/11/17 08:10:33;;;;;;;25.07;17.27;;;6.60;99.90;;;;;;5101085;28;20676;-84
2023/11/17 08:13:03;;;;;;;20.50;14.03;;;6.60;99.90;;;;;;5103733;28;20540;-81
2023/11/17 08:15:31;;;;;;;17.50;13.57;;;6.60;99.90;;;;;;5106282;28;20471;-83
2023/11/17 08:17:58;;;;;;;20.67;14.57;;;6.70;99.90;;;;;;5111329;28;20827;-82
2023/11/17 08:20:24;;;;;;;19.27;12.63;;;6.90;99.90;;;;;;5117958;28;20999;-83
2023/11/17 08:22:51;;;;;;;23.20;14.17;;;7.00;99.90;;;;;;5114519;28;20450;-83
2023/11/17 08:25:21;;;;;;;19.83;13.37;;;7.00;99.90;;;;;;5112194;28;20469;-82
2023/11/17 08:27:48;;;;;;;26.57;15.70;;;7.00;99.90;;;;;;5113471;28;20528;-84
2023/11/17 08:30:16;;;;;;;25.57;16.27;;;6.90;99.90;;;;;;5108387;28;20541;-79
2023/11/17 08:32:43;;;;;;;24.67;15.57;;;7.00;99.90;;;;;;5108932;28;20450;-82
2023/11/17 08:35:09;;;;;;;21.97;15.27;;;7.10;99.90;;;;;;5101456;28;20871;-82
2023/11/17 08:37:36;;;;;;;22.40;15.07;;;7.10;99.90;;;;;;5108228;28;20460;-83
2023/11/17 08:40:08;;;;;;;24.30;14.83;;;7.10;99.90;;;;;;5110080;28;20489;-83
2023/11/17 08:42:37;;;;;;;24.27;15.63;;;6.90;99.90;;;;;;5100462;28;20458;-81
2023/11/17 08:45:07;;;;;;;24.40;15.40;;;7.00;99.90;;;;;;5104306;28;20512;-83
2023/11/17 08:47:36;;;;;;;20.10;13.60;;;7.00;99.90;;;;;;5098877;28;20907;-83
2023/11/17 08:50:04;;;;;;;21.93;14.83;;;7.00;99.90;;;;;;5099174;28;20461;-83
2023/11/17 08:52:34;;;;;;;22.60;15.57;;;7.10;99.90;;;;;;5099383;28;20513;-84
2023/11/17 08:55:02;;;;;;;20.93;14.17;;;7.20;99.90;;;;;;5099990;28;20473;-83
2023/11/17 08:57:30;;;;;;;18.83;13.43;;;7.30;99.90;;;;;;5109688;28;20484;-82
2023/11/17 08:59:59;;;;;;;23.93;16.50;;;7.50;99.90;;;;;;5104671;28;20521;-84
2023/11/17 09:02:26;;;;;;;19.73;13.60;;;7.60;99.90;;;;;;5119945;28;20449;-82
2023/11/17 09:04:53;;;;;;;23.00;13.30;;;7.40;99.90;;;;;;5120788;28;20449;-83
2023/11/17 09:07:20;;;;;;;18.83;13.00;;;7.60;99.90;;;;;;5120581;28;20544;-80
2023/11/17 09:09:47;;;;;;;19.07;13.07;;;7.80;99.90;;;;;;5100109;28;20973;-84
2023/11/17 09:12:14;;;;;;;16.57;12.53;;;7.80;99.90;;;;;;5107865;28;20457;-81
2023/11/17 09:14:43;;;;;;;20.30;12.63;;;7.90;99.90;;;;;;5120354;28;20527;-83
2023/11/17 09:17:12;;;;;;;18.50;13.60;;;7.90;99.90;;;;;;5119577;28;20472;-81
2023/11/17 09:19:41;;;;;;;19.20;12.30;;;8.00;99.90;;;;;;5119061;28;20490;-83
2023/11/17 09:22:08;;;;;;;14.93;11.10;;;8.10;99.90;;;;;;5121404;28;20531;-83
2023/11/17 09:24:35;;;;;;;16.07;12.60;;;8.20;99.90;;;;;;5129110;28;20471;-81
2023/11/17 09:27:04;;;;;;;18.13;11.90;;;8.10;99.90;;;;;;5120512;28;20886;-79
2023/11/17 09:29:33;;;;;;;16.00;11.10;;;8.30;99.90;;;;;;5114377;28;20447;-80
2023/11/17 09:32:00;;;;;;;17.33;11.17;;;8.40;99.90;;;;;;5113725;28;20529;-82
2023/11/17 09:34:31;;;;;;;12.63;8.77;;;8.40;99.90;;;;;;5113115;28;20449;-81
2023/11/17 09:36:58;;;;;;;15.50;9.73;;;8.50;94.30;;;;;;5106767;28;20561;-84
2023/11/17 09:39:25;;;;;;;19.53;11.97;;;8.50;93.80;;;;;;5097597;28;20928;-81
2023/11/17 09:41:53;;;;;;;15.00;10.57;;;8.60;92.60;;;;;;5098103;28;20483;-82
2023/11/17 09:44:24;;;;;;;15.97;11.30;;;8.70;88.00;;;;;;5098649;28;20487;-81
2023/11/17 09:46:55;;;;;;;16.87;10.60;;;8.80;91.80;;;;;;5104329;28;20573;-82
2023/11/17 09:49:27;;;;;;;15.43;10.70;;;8.90;92.70;;;;;;5116214;28;20479;-84
2023/11/17 09:51:56;;;;;;;19.70;11.80;;;8.90;81.90;;;;;;5117184;27;20549;-83
2023/11/17 09:54:24;;;;;;;18.20;12.20;;;9.10;49.00;;;;;;5117557;28;20457;-82
2023/11/17 09:56:53;;;;;;;14.13;11.30;;;9.10;49.90;;;;;;5116982;28;20479;-83
2023/11/17 09:59:20;;;;;;;15.77;12.43;;;9.20;41.20;;;;;;5116539;28;21052;-81
2023/11/17 10:01:49;;;;;;;15.43;9.63;;;9.30;39.20;;;;;;5104736;28;20459;-83
2023/11/17 10:04:18;;;;;;;16.27;10.60;;;9.30;28.10;;;;;;5096691;28;20833;-84
2023/11/17 10:06:50;;;;;;;16.87;11.63;;;9.50;14.70;;;;;;5110067;28;20474;-83
2023/11/17 10:09:19;;;;;;;14.13;10.20;;;9.60;8.60;;;;;;5117685;28;20523;-83
2023/11/17 10:11:48;;;;;;;13.77;9.97;;;9.70;6.30;;;;;;5119106;28;20460;-82
2023/11/17 10:14:16;;;;;;;15.10;10.83;;;9.80;5.20;;;;;;5110319;28;20468;-82
2023/11/17 10:16:43;;;;;;;16.13;11.03;;;9.70;1.00;;;;;;5107293;28;20484;-82
2023/11/17 10:19:14;;;;;;;15.73;10.30;;;9.70;1.00;;;;;;5098479;28;20495;-82
2023/11/17 10:21:46;;;;;;;14.00;9.97;;;9.80;1.00;;;;;;5098870;28;20475;-82
2023/11/17 10:24:12;;;;;;;14.73;10.17;;;9.90;1.00;;;;;;5099078;28;20522;-81
2023/11/17 10:26:41;;;;;;;15.20;10.47;;;9.90;1.00;;;;;;5097658;28;20561;-82
2023/11/17 10:29:10;;;;;;;15.43;11.50;;;9.90;3.30;;;;;;5099099;28;20460;-82
2023/11/17 10:31:41;;;;;;;13.80;10.47;;;10.00;1.00;;;;;;5098820;28;20859;-80
2023/11/17 10:34:12;;;;;;;20.40;10.17;;;10.00;1.00;;;;;;5095358;28;20461;-80
2023/11/17 10:36:54;;;;;;;10.97;8.50;;;10.00;1.00;;;;;;5097929;28;20476;-80
2023/11/17 10:39:21;;;;;;;13.83;10.20;;;10.00;1.00;;;;;;5115813;28;20554;-80
2023/11/17 10:41:49;;;;;;;16.33;9.50;;;10.10;1.00;;;;;;5115821;28;20550;-82
2023/11/17 10:44:31;;;;;;;14.77;9.40;;;10.20;1.00;;;;;;5115083;28;20459;-83
2023/11/17 10:46:58;;;;;;;14.07;9.13;;;10.30;1.00;;;;;;5108185;28;20559;-81
2023/11/17 10:49:24;;;;;;;12.37;8.60;;;10.40;1.00;;;;;;5114246;28;20475;-82
2023/11/17 10:51:53;;;;;;;15.07;10.13;;;10.50;1.00;;;;;;5101865;28;20489;-83
2023/11/17 10:54:20;;;;;;;14.70;8.50;;;10.60;1.00;;;;;;5113239;28;20452;-80
2023/11/17 10:56:49;;;;;;;10.53;7.87;;;10.70;1.00;;;;;;5132354;28;20482;-81
2023/11/17 10:59:18;;;;;;;13.90;8.27;;;10.70;1.00;;;;;;5128813;28;20448;-79
2023/11/17 11:01:47;;;;;;;7.90;7.10;;;10.70;1.00;;;;;;5122797;28;20489;-82
2023/11/17 11:04:17;;;;;;;11.63;7.03;;;10.80;1.00;;;;;;5130137;28;20451;-78
2023/11/17 11:06:44;;;;;;;13.17;7.80;;;10.80;99.90;;;;;;5132656;28;20465;-81
2023/11/17 11:09:16;;;;;;;11.50;6.73;;;10.80;99.90;;;;;;5119453;28;20459;-83
2023/11/17 11:11:47;;;;;;;9.53;7.37;;;10.70;99.90;;;;;;5117903;28;20455;-83
2023/11/17 11:14:17;;;;;;;11.40;7.50;;;10.70;99.90;;;;;;5118438;28;20492;-84
2023/11/17 11:16:46;;;;;;;12.80;7.63;;;10.70;99.90;;;;;;5118656;28;20502;-83
2023/11/17 11:19:15;;;;;;;11.67;7.93;;;10.60;99.90;;;;;;5118542;28;20470;-84
2023/11/17 11:21:42;;;;;;;10.20;7.73;;;10.60;99.90;;;;;;5119005;28;20467;-83
2023/11/17 11:24:09;;;;;;;9.67;6.50;;;10.40;1.00;;;;;;5118567;28;20462;-84
2023/11/17 11:26:38;;;;;;;11.33;7.63;;;10.40;1.00;;;;;;5118094;28;21050;-83
2023/11/17 11:29:05;;;;;;;11.07;7.77;;;10.40;1.00;;;;;;5118273;28;20923;-83
2023/11/17 11:31:37;;;;;;;12.43;9.10;;;10.40;1.00;;;;;;5108841;28;20458;-83
2023/11/17 11:34:05;;;;;;;14.13;8.73;;;10.40;1.00;;;;;;5097609;28;20469;-84
2023/11/17 11:36:32;;;;;;;13.10;7.30;;;10.20;1.00;;;;;;5097401;28;20499;-83
2023/11/17 11:38:59;;;;;;;14.77;8.73;;;10.20;1.00;;;;;;5097072;28;20551;-83
2023/11/17 11:41:27;;;;;;;12.50;8.07;;;10.20;1.00;;;;;;5097030;28;20486;-82
2023/11/17 11:43:54;;;;;;;12.20;8.30;;;10.20;1.00;;;;;;5097399;28;20453;-82
2023/11/17 11:46:25;;;;;;;14.40;8.40;;;10.10;1.00;;;;;;5097694;28;21027;-80
2023/11/17 11:48:56;;;;;;;12.77;7.57;;;10.10;1.00;;;;;;5101040;28;20484;-84
2023/11/17 11:51:26;;;;;;;12.97;7.30;;;10.20;1.00;;;;;;5099052;28;20453;-83
2023/11/17 11:53:55;;;;;;;12.03;7.80;;;10.20;1.00;;;;;;5113582;28;20451;-84
2023/11/17 11:56:29;;;;;;;11.30;8.93;;;10.20;1.00;;;;;;5114998;28;20472;-84
2023/11/17 11:58:57;;;;;;;10.80;7.03;;;10.20;1.00;;;;;;5105744;28;20534;-84
2023/11/17 12:01:24;;;;;;;10.23;7.77;;;10.10;1.00;;;;;;5113242;28;20879;-83
2023/11/17 12:03:54;;;;;;;10.33;7.40;;;10.10;1.00;;;;;;5115113;28;21512;-84
2023/11/17 12:06:22;;;;;;;10.77;7.80;;;10.10;1.00;;;;;;5108988;28;20563;-82
2023/11/17 12:08:55;;;;;;;12.60;9.57;;;10.00;1.00;;;;;;5111993;28;20481;-84
2023/11/17 12:11:23;;;;;;;9.50;7.67;;;10.10;5.10;;;;;;5102723;28;20540;-82
2023/11/17 12:13:52;;;;;;;9.57;7.43;;;10.40;1.00;;;;;;5100528;28;20479;-83
2023/11/17 12:16:20;;;;;;;11.77;7.80;;;10.60;1.00;;;;;;5099706;28;20484;-84
2023/11/17 12:18:50;;;;;;;12.50;8.60;;;10.80;1.00;;;;;;5110166;28;20454;-82
2023/11/17 12:21:24;;;;;;;16.90;11.40;;;11.00;1.00;;;;;;5101741;28;20511;-82
2023/11/17 12:23:55;;;;;;;16.27;9.70;;;11.00;1.00;;;;;;5107681;28;20526;-82
2023/11/17 12:26:26;;;;;;;14.30;10.07;;;11.10;1.00;;;;;;5105465;27;20461;-82
2023/11/17 12:28:55;;;;;;;17.13;11.60;;;11.20;1.00;;;;;;5110789;27;20449;-84
2023/11/17 12:31:26;;;;;;;16.27;11.17;;;11.20;1.00;;;;;;5098861;28;20872;-80
2023/11/17 12:33:54;;;;;;;16.47;11.60;;;11.30;1.00;;;;;;5105495;28;20946;-82
2023/11/17 12:36:24;;;;;;;13.67;10.43;;;11.30;1.00;;;;;;5097583;28;20473;-81
2023/11/17 12:39:04;;;;;;;16.20;10.50;;;11.30;1.00;;;;;;5098457;28;20506;-81
2023/11/17 12:41:33;;;;;;;17.23;12.10;;;11.40;1.00;;;;;;5108253;28;20870;-83
2023/11/17 12:44:00;;;;;;;15.10;11.60;;;11.40;1.00;;;;;;5118722;28;20464;-84
2023/11/17 12:46:32;;;;;;;17.97;12.03;;;11.40;1.00;;;;;;5100505;28;20484;-83
2023/11/17 12:49:00;;;;;;;17.03;11.80;;;11.40;1.00;;;;;;5097887;28;20454;-82